Time;durP1;ratioP1;P1;durP2;ratioP2;P2;SDS_P1;SDS_P2;PMS_P1;PMS_P2;Temp;Humidity;BMP_temperature;BMP_pressure;BME280_temperature;BME280_humidity;BME280_pressure;Samples;Min_cycle;Max_cycle;Signal;HPM_P1;HPM_P2
2023/09/21 00:00:08;;;;;;;3.88;1.95;;;19.80;99.90;;;;;;5052902;28;20624;-46
2023/09/21 00:02:37;;;;;;;2.78;1.70;;;19.80;99.90;;;;;;5053204;28;20206;-49
2023/09/21 00:05:03;;;;;;;3.40;1.98;;;19.80;99.90;;;;;;5053125;28;20198;-47
2023/09/21 00:07:31;;;;;;;3.05;1.85;;;19.80;99.90;;;;;;5052924;28;20176;-49
2023/09/21 00:09:57;;;;;;;4.88;2.25;;;19.80;99.90;;;;;;5053000;28;20171;-46
2023/09/21 00:12:22;;;;;;;3.40;1.67;;;19.80;99.90;;;;;;5053050;28;20171;-49
2023/09/21 00:14:48;;;;;;;5.22;1.65;;;19.80;99.90;;;;;;5053106;28;20237;-49
2023/09/21 00:17:14;;;;;;;5.68;1.88;;;19.70;99.90;;;;;;5053125;28;20532;-51
2023/09/21 00:19:40;;;;;;;2.85;1.83;;;19.80;99.90;;;;;;5052795;28;20271;-51
2023/09/21 00:22:06;;;;;;;2.95;1.90;;;19.70;99.90;;;;;;5052739;28;20697;-48
2023/09/21 00:24:34;;;;;;;2.90;1.60;;;19.70;99.90;;;;;;5052817;28;20259;-51
2023/09/21 00:27:02;;;;;;;2.78;1.70;;;19.80;99.90;;;;;;5052800;28;20171;-52
2023/09/21 00:29:29;;;;;;;3.83;1.90;;;19.70;99.90;;;;;;5052631;28;20261;-50
2023/09/21 00:31:58;;;;;;;2.85;1.90;;;19.80;99.90;;;;;;5052797;28;20637;-49
2023/09/21 00:34:27;;;;;;;3.78;1.80;;;19.90;99.90;;;;;;5052786;28;20175;-50
2023/09/21 00:36:53;;;;;;;2.30;1.63;;;19.90;99.90;;;;;;5052686;28;20180;-50
2023/09/21 00:39:19;;;;;;;2.95;1.70;;;19.90;99.90;;;;;;5053522;28;20651;-50
2023/09/21 00:41:45;;;;;;;2.75;1.80;;;19.90;99.90;;;;;;5056471;28;20199;-45
2023/09/21 00:44:11;;;;;;;4.25;1.65;;;19.90;99.90;;;;;;5056329;28;20596;-50
2023/09/21 00:46:38;;;;;;;3.30;1.67;;;19.90;99.90;;;;;;5056618;28;20183;-49
2023/09/21 00:49:05;;;;;;;3.88;1.95;;;19.90;99.90;;;;;;5056468;28;20206;-47
2023/09/21 00:51:34;;;;;;;3.25;1.70;;;19.90;99.90;;;;;;5056281;28;20191;-51
2023/09/21 00:54:05;;;;;;;3.67;2.10;;;20.00;99.90;;;;;;5056374;28;20652;-47
2023/09/21 00:56:34;;;;;;;3.17;1.67;;;20.00;99.90;;;;;;5056144;28;20179;-49
2023/09/21 00:59:02;;;;;;;3.60;1.30;;;20.00;99.90;;;;;;5056171;28;20237;-49
2023/09/21 01:01:31;;;;;;;4.80;1.75;;;20.00;99.90;;;;;;5056260;28;20230;-51
2023/09/21 01:04:01;;;;;;;3.40;1.50;;;20.00;99.90;;;;;;5056196;28;20624;-48
2023/09/21 01:06:27;;;;;;;2.95;1.83;;;19.90;99.90;;;;;;5055991;28;20575;-46
2023/09/21 01:08:53;;;;;;;2.97;1.80;;;20.00;99.90;;;;;;5055893;28;20215;-51
2023/09/21 01:11:19;;;;;;;1.85;1.60;;;20.00;99.90;;;;;;5056124;28;20652;-50
2023/09/21 01:13:47;;;;;;;2.38;1.95;;;20.00;99.90;;;;;;5056099;28;20172;-49
2023/09/21 01:16:15;;;;;;;2.50;1.77;;;20.00;99.90;;;;;;5055963;28;20183;-46
2023/09/21 01:18:41;;;;;;;1.83;1.40;;;20.10;99.90;;;;;;5055800;28;20198;-50
2023/09/21 01:21:13;;;;;;;2.85;1.65;;;20.00;99.90;;;;;;5055651;28;20296;-53
2023/09/21 01:23:52;;;;;;;4.22;1.85;;;20.00;99.90;;;;;;5055688;28;20171;-50
2023/09/21 01:26:18;;;;;;;2.67;1.58;;;20.10;99.90;;;;;;5055653;28;20269;-51
2023/09/21 01:28:47;;;;;;;3.17;1.75;;;20.00;99.90;;;;;;5055767;28;20223;-46
2023/09/21 01:31:14;;;;;;;2.10;1.60;;;20.10;99.90;;;;;;5055643;28;20250;-47
2023/09/21 01:33:41;;;;;;;5.90;1.70;;;20.10;99.90;;;;;;5055564;28;20175;-48
2023/09/21 01:36:08;;;;;;;4.45;1.83;;;20.10;99.90;;;;;;5055466;28;20175;-47
2023/09/21 01:38:35;;;;;;;3.20;1.75;;;20.10;99.90;;;;;;5055591;28;20722;-51
2023/09/21 01:41:01;;;;;;;3.80;1.90;;;20.10;99.90;;;;;;5055460;28;20183;-50
2023/09/21 01:43:30;;;;;;;3.80;1.92;;;20.10;99.90;;;;;;5055418;28;20229;-50
2023/09/21 01:45:56;;;;;;;5.47;2.10;;;20.00;99.90;;;;;;5055303;28;20270;-48
2023/09/21 01:48:22;;;;;;;2.47;1.67;;;20.00;99.90;;;;;;5055219;28;20207;-46
2023/09/21 01:50:50;;;;;;;3.40;1.67;;;20.10;99.90;;;;;;5054259;28;20175;-49
2023/09/21 01:53:18;;;;;;;2.65;1.80;;;20.10;99.90;;;;;;5055433;28;20229;-47
2023/09/21 01:55:47;;;;;;;4.63;1.80;;;20.10;99.90;;;;;;5055283;28;20171;-50
2023/09/21 01:58:17;;;;;;;2.83;1.70;;;20.10;99.90;;;;;;5055120;28;20183;-48
2023/09/21 02:00:47;;;;;;;3.08;1.75;;;20.00;99.90;;;;;;5055068;28;20258;-49
2023/09/21 02:03:14;;;;;;;2.45;1.98;;;20.00;99.90;;;;;;5054959;28;20171;-49
2023/09/21 02:05:40;;;;;;;4.18;1.70;;;19.90;99.90;;;;;;5055204;28;20175;-48
2023/09/21 02:08:07;;;;;;;2.03;1.77;;;19.90;99.90;;;;;;5055107;28;20206;-49
2023/09/21 02:10:34;;;;;;;2.63;1.52;;;19.90;99.90;;;;;;5054975;28;20186;-49
2023/09/21 02:13:01;;;;;;;3.10;1.73;;;19.90;99.90;;;;;;5054855;28;20265;-51
2023/09/21 02:15:27;;;;;;;2.80;1.95;;;19.80;99.90;;;;;;5054843;28;20253;-50
2023/09/21 02:17:55;;;;;;;3.85;1.67;;;19.80;99.90;;;;;;5054648;28;20255;-46
2023/09/21 02:20:35;;;;;;;3.45;1.90;;;19.80;99.90;;;;;;5054696;28;20219;-50
2023/09/21 02:23:02;;;;;;;2.92;1.70;;;19.80;99.90;;;;;;5054726;28;20636;-50
2023/09/21 02:25:32;;;;;;;4.45;1.85;;;19.80;99.90;;;;;;5053403;28;20168;-48
2023/09/21 02:27:58;;;;;;;3.00;1.85;;;19.80;99.90;;;;;;5054345;28;20545;-48
2023/09/21 02:30:24;;;;;;;2.38;1.70;;;19.80;99.90;;;;;;5054489;28;20197;-49
2023/09/21 02:32:52;;;;;;;3.83;1.90;;;19.70;99.90;;;;;;5054365;28;20636;-50
2023/09/21 02:35:22;;;;;;;3.13;1.83;;;19.80;99.90;;;;;;5054548;28;20186;-47
2023/09/21 02:37:50;;;;;;;5.25;2.10;;;19.70;99.90;;;;;;5054390;28;20648;-49
2023/09/21 02:40:17;;;;;;;3.78;1.70;;;19.80;99.90;;;;;;5054319;28;20202;-51
2023/09/21 02:42:45;;;;;;;3.13;1.70;;;19.70;99.90;;;;;;5054181;28;20171;-51
2023/09/21 02:45:11;;;;;;;4.97;1.90;;;19.80;99.90;;;;;;5054398;28;20644;-49
2023/09/21 02:47:38;;;;;;;1.83;1.70;;;19.70;99.90;;;;;;5054207;28;20171;-47
2023/09/21 02:50:15;;;;;;;2.72;1.80;;;19.70;99.90;;;;;;5054166;28;20187;-48
2023/09/21 02:52:46;;;;;;;3.65;1.80;;;19.70;99.90;;;;;;5054099;28;20171;-50
2023/09/21 02:55:20;;;;;;;2.45;1.60;;;19.80;99.90;;;;;;5053923;28;20642;-52
2023/09/21 02:57:48;;;;;;;3.15;1.88;;;19.80;99.90;;;;;;5054121;28;20171;-48
2023/09/21 03:00:39;;;;;;;3.25;1.80;;;19.80;99.90;;;;;;5054126;28;20168;-47
2023/09/21 03:03:05;;;;;;;4.32;2.00;;;19.70;99.90;;;;;;5053421;28;20179;-49
2023/09/21 03:05:34;;;;;;;3.13;1.60;;;19.70;99.90;;;;;;5053779;28;20183;-51
2023/09/21 03:08:13;;;;;;;2.70;2.20;;;19.70;99.90;;;;;;5054058;28;20206;-50
2023/09/21 03:10:45;;;;;;;3.10;2.00;;;19.60;99.90;;;;;;5053953;28;20210;-51
2023/09/21 03:13:18;;;;;;;3.58;1.90;;;19.60;99.90;;;;;;5053802;28;20191;-50
2023/09/21 03:15:58;;;;;;;2.72;2.08;;;19.60;99.90;;;;;;5053780;28;20665;-49
2023/09/21 03:18:25;;;;;;;3.85;2.20;;;19.50;99.90;;;;;;5053650;28;20533;-50
2023/09/21 03:20:54;;;;;;;2.78;1.80;;;19.40;99.90;;;;;;5053361;28;20231;-52
2023/09/21 03:23:21;;;;;;;4.32;2.10;;;19.30;99.90;;;;;;5053715;28;20186;-50
2023/09/21 03:25:49;;;;;;;5.35;2.40;;;19.00;99.90;;;;;;5053451;28;20179;-49
2023/09/21 03:28:17;;;;;;;4.25;2.20;;;18.90;99.90;;;;;;5053392;28;20257;-46
2023/09/21 03:30:45;;;;;;;3.70;2.10;;;18.70;99.90;;;;;;5053387;28;20163;-47
2023/09/21 03:33:12;;;;;;;4.82;2.22;;;18.50;99.90;;;;;;5053419;28;20178;-47
2023/09/21 03:35:38;;;;;;;2.72;2.08;;;18.30;99.90;;;;;;5053541;28;20176;-49
2023/09/21 03:38:12;;;;;;;4.70;2.13;;;18.10;99.90;;;;;;5053420;28;20195;-46
2023/09/21 03:40:42;;;;;;;2.63;2.00;;;18.00;99.90;;;;;;5053414;28;20698;-50
2023/09/21 03:43:14;;;;;;;2.92;2.20;;;17.80;99.90;;;;;;5053253;28;20636;-47
2023/09/21 03:45:42;;;;;;;4.10;2.20;;;17.80;99.90;;;;;;5053549;28;20603;-48
2023/09/21 03:48:09;;;;;;;4.28;2.20;;;17.80;99.90;;;;;;5053238;28;20257;-47
2023/09/21 03:50:36;;;;;;;4.80;2.60;;;17.80;99.90;;;;;;5053241;28;20655;-47
2023/09/21 03:53:05;;;;;;;3.65;2.53;;;17.80;99.90;;;;;;5053145;28;20171;-48
2023/09/21 03:55:32;;;;;;;2.28;2.08;;;17.70;99.90;;;;;;5053164;28;20218;-50
2023/09/21 03:57:57;;;;;;;3.25;2.15;;;17.60;99.90;;;;;;5051782;28;20517;-46
2023/09/21 04:03:10;;;;;;;4.25;2.30;;;17.50;99.90;;;;;;5053228;28;20183;-47
2023/09/21 04:05:39;;;;;;;2.70;2.03;;;17.60;99.90;;;;;;5053171;28;20198;-49
2023/09/21 04:08:05;;;;;;;2.45;2.03;;;17.60;99.90;;;;;;5052921;28;20211;-50
2023/09/21 04:10:32;;;;;;;4.40;2.58;;;17.70;99.90;;;;;;5053139;28;20182;-49
2023/09/21 04:12:58;;;;;;;3.45;2.33;;;17.60;99.90;;;;;;5053081;28;20183;-46
2023/09/21 04:15:25;;;;;;;2.85;2.40;;;17.60;99.90;;;;;;5056014;28;20193;-46
2023/09/21 04:17:52;;;;;;;3.13;2.50;;;17.60;99.90;;;;;;5056998;28;20274;-49
2023/09/21 04:20:18;;;;;;;2.95;2.28;;;17.60;99.90;;;;;;5057203;28;20227;-49
2023/09/21 04:22:45;;;;;;;2.63;2.25;;;17.50;99.90;;;;;;5056914;28;20183;-47
2023/09/21 04:25:14;;;;;;;3.55;2.20;;;17.40;99.90;;;;;;5056854;28;20191;-51
2023/09/21 04:27:41;;;;;;;3.25;2.45;;;17.50;99.90;;;;;;5057100;28;20167;-47
2023/09/21 04:30:14;;;;;;;3.88;2.30;;;17.50;99.90;;;;;;5056881;28;20203;-51
2023/09/21 04:32:41;;;;;;;3.60;2.20;;;17.60;99.90;;;;;;5056879;28;20180;-45
2023/09/21 04:35:08;;;;;;;3.25;2.40;;;17.60;99.90;;;;;;5056741;28;20656;-49
2023/09/21 04:37:35;;;;;;;2.42;2.22;;;17.60;99.90;;;;;;5056558;28;20221;-48
2023/09/21 04:40:05;;;;;;;3.63;2.22;;;17.60;99.90;;;;;;5056831;28;20189;-49
2023/09/21 04:42:32;;;;;;;3.63;2.42;;;17.50;99.90;;;;;;5056590;28;20179;-48
2023/09/21 04:44:59;;;;;;;2.53;2.00;;;17.60;99.90;;;;;;5056525;28;20233;-50
2023/09/21 04:47:25;;;;;;;3.13;2.20;;;17.60;99.90;;;;;;5056306;28;20175;-47
2023/09/21 04:49:53;;;;;;;3.60;2.25;;;17.60;99.90;;;;;;5056283;28;20580;-49
2023/09/21 04:52:20;;;;;;;3.08;2.22;;;17.60;99.90;;;;;;5056385;28;20270;-48
2023/09/21 04:54:51;;;;;;;4.00;2.38;;;17.70;99.90;;;;;;5055633;28;20321;-48
2023/09/21 04:57:18;;;;;;;4.32;2.45;;;17.60;99.90;;;;;;5056332;28;20214;-49
2023/09/21 04:59:44;;;;;;;3.05;2.22;;;17.60;99.90;;;;;;5056265;28;20182;-47
2023/09/21 05:02:10;;;;;;;5.30;2.35;;;17.50;99.90;;;;;;5056080;28;20167;-47
2023/09/21 05:04:36;;;;;;;4.50;2.22;;;17.50;99.90;;;;;;5056079;28;20202;-52
2023/09/21 05:07:01;;;;;;;4.57;2.33;;;17.50;99.90;;;;;;5056220;28;20179;-50
2023/09/21 05:09:27;;;;;;;3.28;2.63;;;17.60;99.90;;;;;;5055828;28;20221;-49
2023/09/21 05:11:53;;;;;;;3.55;2.38;;;17.60;99.90;;;;;;5055693;28;20258;-49
2023/09/21 05:14:21;;;;;;;2.78;2.30;;;17.60;99.90;;;;;;5055674;28;20266;-49
2023/09/21 05:16:47;;;;;;;2.47;2.28;;;17.60;99.90;;;;;;5055920;28;20187;-49
2023/09/21 05:19:18;;;;;;;3.95;2.20;;;17.60;99.90;;;;;;5055433;28;20628;-47
2023/09/21 05:21:43;;;;;;;3.85;2.08;;;17.60;99.90;;;;;;5055963;28;20171;-45
2023/09/21 05:24:10;;;;;;;3.17;2.28;;;17.60;99.90;;;;;;5055924;28;20180;-46
2023/09/21 05:26:36;;;;;;;2.45;2.20;;;17.60;99.90;;;;;;5055982;28;20183;-46
2023/09/21 05:29:02;;;;;;;3.35;2.13;;;17.60;99.90;;;;;;5055653;28;20240;-47
2023/09/21 05:31:28;;;;;;;2.85;2.60;;;17.60;99.90;;;;;;5055737;28;20179;-50
2023/09/21 05:33:55;;;;;;;2.55;2.00;;;17.70;99.90;;;;;;5055534;28;20171;-48
2023/09/21 05:36:21;;;;;;;3.33;2.25;;;17.70;99.90;;;;;;5055414;28;20525;-49
2023/09/21 05:38:47;;;;;;;3.28;2.25;;;17.60;99.90;;;;;;5055546;28;20317;-50
2023/09/21 05:41:13;;;;;;;3.28;1.80;;;17.70;99.90;;;;;;5055785;28;20528;-48
2023/09/21 05:43:42;;;;;;;2.47;1.90;;;17.80;99.90;;;;;;5055485;28;20176;-45
2023/09/21 05:46:10;;;;;;;2.47;1.27;;;17.70;99.90;;;;;;5055300;28;20540;-49
2023/09/21 05:48:37;;;;;;;2.38;1.25;;;17.50;99.90;;;;;;5055139;28;20200;-48
2023/09/21 05:51:04;;;;;;;1.95;1.33;;;17.50;99.90;;;;;;5055395;28;20187;-47
2023/09/21 05:53:31;;;;;;;5.07;1.83;;;17.30;99.90;;;;;;5055256;28;20628;-50
2023/09/21 05:55:57;;;;;;;3.45;1.73;;;17.00;99.90;;;;;;5055098;28;20656;-48
2023/09/21 05:58:24;;;;;;;4.75;1.75;;;17.00;99.90;;;;;;5055201;28;20698;-49
2023/09/21 06:00:49;;;;;;;3.10;1.50;;;17.00;99.90;;;;;;5055042;28;20186;-45
2023/09/21 06:03:15;;;;;;;3.38;1.65;;;17.00;99.90;;;;;;5055523;28;20175;-48
2023/09/21 06:05:45;;;;;;;4.50;1.88;;;16.90;99.90;;;;;;5055133;28;20655;-46
2023/09/21 06:08:10;;;;;;;2.20;1.90;;;16.90;99.90;;;;;;5054795;28;20568;-50
2023/09/21 06:10:36;;;;;;;5.20;2.25;;;16.90;99.90;;;;;;5055038;28;20199;-46
2023/09/21 06:13:07;;;;;;;5.35;2.35;;;16.90;99.90;;;;;;5055022;28;20207;-51
2023/09/21 06:15:33;;;;;;;5.90;2.33;;;16.80;99.90;;;;;;5054716;28;20694;-45
2023/09/21 06:17:58;;;;;;;4.97;2.33;;;16.90;99.90;;;;;;5055142;28;20215;-47
2023/09/21 06:20:26;;;;;;;6.25;2.40;;;16.80;99.90;;;;;;5054694;28;20234;-49
2023/09/21 06:22:52;;;;;;;4.00;2.60;;;16.90;99.90;;;;;;5054725;28;20185;-47
2023/09/21 06:25:20;;;;;;;5.93;2.88;;;16.90;99.90;;;;;;5054712;28;20182;-49
2023/09/21 06:27:46;;;;;;;3.80;2.60;;;16.90;99.90;;;;;;5054497;28;20184;-49
2023/09/21 06:30:15;;;;;;;5.38;2.50;;;16.90;99.90;;;;;;5054505;28;20168;-45
2023/09/21 06:32:40;;;;;;;3.60;2.58;;;16.90;99.90;;;;;;5054573;28;20226;-47
2023/09/21 06:35:08;;;;;;;3.80;2.75;;;16.90;99.90;;;;;;5053398;28;20186;-46
2023/09/21 06:37:34;;;;;;;4.93;2.75;;;17.00;99.90;;;;;;5053968;28;20183;-49
2023/09/21 06:40:00;;;;;;;4.10;2.78;;;16.80;99.90;;;;;;5054342;28;20203;-49
2023/09/21 06:42:26;;;;;;;3.90;2.10;;;16.90;99.90;;;;;;5054261;28;20648;-48
2023/09/21 06:44:54;;;;;;;2.65;1.95;;;16.90;99.90;;;;;;5054247;28;20186;-45
2023/09/21 06:47:26;;;;;;;3.88;2.20;;;17.00;99.90;;;;;;5054072;28;20778;-49
2023/09/21 06:49:53;;;;;;;2.55;1.88;;;17.00;99.90;;;;;;5053401;28;20215;-49
2023/09/21 06:52:21;;;;;;;6.63;3.10;;;17.10;99.90;;;;;;5052889;28;20182;-46
2023/09/21 06:54:49;;;;;;;2.75;1.95;;;17.10;99.90;;;;;;5053641;28;20175;-46
2023/09/21 06:57:15;;;;;;;5.20;2.17;;;17.10;99.90;;;;;;5053861;28;20175;-50
2023/09/21 06:59:42;;;;;;;2.85;1.88;;;17.10;99.90;;;;;;5054177;28;20185;-49
2023/09/21 07:02:07;;;;;;;5.10;2.00;;;17.00;99.90;;;;;;5054228;28;20183;-48
2023/09/21 07:04:34;;;;;;;2.35;1.80;;;17.10;99.90;;;;;;5053953;28;20186;-50
2023/09/21 07:07:05;;;;;;;3.50;2.00;;;17.10;99.90;;;;;;5053951;28;20217;-47
2023/09/21 07:09:32;;;;;;;3.58;1.83;;;17.10;99.90;;;;;;5053778;28;20268;-49
2023/09/21 07:11:58;;;;;;;2.08;1.70;;;17.20;99.90;;;;;;5053576;28;20179;-47
2023/09/21 07:14:23;;;;;;;2.55;1.63;;;17.10;99.90;;;;;;5053834;28;20176;-46
2023/09/21 07:16:49;;;;;;;3.60;1.70;;;17.10;99.90;;;;;;5053639;28;20178;-48
2023/09/21 07:19:15;;;;;;;2.65;1.83;;;17.10;99.90;;;;;;5053531;28;20187;-50
2023/09/21 07:21:40;;;;;;;2.35;1.73;;;17.20;99.90;;;;;;5053777;28;20631;-48
2023/09/21 07:24:07;;;;;;;2.55;1.70;;;17.00;99.90;;;;;;5053705;28;20180;-48
2023/09/21 07:26:34;;;;;;;2.85;1.70;;;17.00;99.90;;;;;;5053531;28;20646;-48
2023/09/21 07:29:05;;;;;;;3.38;1.90;;;17.10;99.90;;;;;;5053630;28;20217;-48
2023/09/21 07:31:33;;;;;;;3.70;2.00;;;17.10;99.90;;;;;;5053597;28;20179;-48
2023/09/21 07:34:01;;;;;;;2.38;1.90;;;17.10;99.90;;;;;;5053471;28;20582;-47
2023/09/21 07:36:27;;;;;;;3.45;2.22;;;17.10;99.90;;;;;;5053377;28;20174;-48
2023/09/21 07:38:55;;;;;;;3.30;1.70;;;17.10;99.90;;;;;;5053316;28;20176;-50
2023/09/21 07:41:21;;;;;;;2.58;1.60;;;17.10;99.90;;;;;;5053258;28;20178;-45
2023/09/21 07:43:48;;;;;;;3.00;1.70;;;17.10;99.90;;;;;;5053404;28;20174;-47
2023/09/21 07:46:14;;;;;;;2.20;1.70;;;17.10;99.90;;;;;;5053340;28;20517;-47
2023/09/21 07:48:40;;;;;;;3.47;2.00;;;17.10;99.90;;;;;;5052551;28;20203;-45
2023/09/21 07:51:12;;;;;;;2.17;1.80;;;17.10;99.90;;;;;;5053100;28;20171;-50
2023/09/21 07:53:40;;;;;;;2.47;1.77;;;17.00;99.90;;;;;;5053190;28;20186;-46
2023/09/21 07:56:11;;;;;;;2.88;1.75;;;17.10;99.90;;;;;;5053441;28;20186;-47
2023/09/21 07:58:37;;;;;;;3.78;2.13;;;17.10;99.90;;;;;;5053277;28;20176;-46
2023/09/21 08:01:03;;;;;;;2.67;2.08;;;17.00;99.90;;;;;;5053191;28;20702;-48
2023/09/21 08:03:29;;;;;;;3.85;2.22;;;17.00;99.90;;;;;;5053308;28;20183;-45
2023/09/21 08:05:56;;;;;;;7.38;4.20;;;17.00;99.90;;;;;;5053072;28;20167;-48
2023/09/21 08:08:25;;;;;;;5.15;2.90;;;17.00;99.90;;;;;;5052822;28;20293;-47
2023/09/21 08:10:52;;;;;;;3.08;2.00;;;16.90;99.90;;;;;;5053243;28;20225;-48
2023/09/21 08:13:19;;;;;;;10.88;5.32;;;16.70;99.90;;;;;;5053102;28;20186;-51
2023/09/21 08:15:46;;;;;;;13.18;6.00;;;16.70;99.90;;;;;;5053049;28;20164;-46
2023/09/21 08:18:12;;;;;;;14.15;6.22;;;16.70;99.90;;;;;;5052871;28;20187;-49
2023/09/21 08:20:39;;;;;;;4.78;2.70;;;16.70;99.90;;;;;;5053033;28;20275;-45
2023/09/21 08:23:08;;;;;;;9.00;3.85;;;16.70;99.90;;;;;;5052811;28;20186;-47
2023/09/21 08:25:35;;;;;;;10.05;3.97;;;16.60;99.90;;;;;;5052811;28;20175;-47
2023/09/21 08:28:07;;;;;;;3.50;2.03;;;16.70;99.90;;;;;;5052727;28;20345;-46
2023/09/21 08:30:33;;;;;;;3.72;2.20;;;16.60;99.90;;;;;;5052887;28;20176;-45
2023/09/21 08:32:59;;;;;;;5.53;2.55;;;16.60;99.90;;;;;;5051992;28;20174;-51
2023/09/21 08:35:26;;;;;;;2.35;1.80;;;16.50;99.90;;;;;;5052720;28;20621;-50
2023/09/21 08:37:52;;;;;;;3.15;1.92;;;16.50;99.90;;;;;;5052856;28;20171;-46
2023/09/21 08:40:21;;;;;;;2.17;1.45;;;16.60;99.90;;;;;;5052889;28;20163;-51
2023/09/21 08:42:51;;;;;;;4.40;1.88;;;16.50;99.90;;;;;;5052810;28;20176;-51
2023/09/21 08:45:19;;;;;;;3.67;2.03;;;16.60;99.90;;;;;;5052733;28;20207;-50
2023/09/21 08:47:46;;;;;;;2.30;1.98;;;16.60;99.90;;;;;;5052456;28;20263;-49
2023/09/21 08:50:13;;;;;;;4.75;2.03;;;16.60;99.90;;;;;;5052840;28;20275;-44
2023/09/21 08:52:42;;;;;;;4.32;2.05;;;16.60;99.90;;;;;;5052776;28;20176;-49
2023/09/21 08:55:10;;;;;;;3.92;1.95;;;16.70;99.90;;;;;;5052548;28;20687;-48
2023/09/21 08:57:37;;;;;;;10.32;2.65;;;16.70;99.90;;;;;;5052583;28;20176;-47
2023/09/21 09:00:08;;;;;;;5.75;2.22;;;16.70;99.90;;;;;;5052934;28;20263;-46
2023/09/21 09:02:37;;;;;;;6.43;2.25;;;16.70;99.90;;;;;;5056085;28;20258;-48
2023/09/21 09:05:08;;;;;;;2.38;1.50;;;16.80;99.90;;;;;;5056237;28;20186;-49
2023/09/21 09:07:40;;;;;;;1.83;1.52;;;16.80;99.90;;;;;;5056160;28;20179;-50
2023/09/21 09:10:10;;;;;;;2.35;1.35;;;16.90;99.90;;;;;;5056148;28;20211;-50
2023/09/21 09:12:37;;;;;;;2.55;1.30;;;16.80;99.90;;;;;;5056111;28;20183;-51
2023/09/21 09:15:05;;;;;;;2.67;1.50;;;16.70;99.90;;;;;;5055950;28;20193;-47
2023/09/21 09:17:34;;;;;;;3.47;1.60;;;16.70;99.90;;;;;;5056116;28;20274;-45
2023/09/21 09:20:05;;;;;;;2.45;1.40;;;16.70;99.90;;;;;;5056077;28;20285;-47
2023/09/21 09:22:34;;;;;;;1.90;1.40;;;16.80;99.90;;;;;;5056000;28;20640;-50
2023/09/21 09:25:12;;;;;;;2.08;1.20;;;16.60;99.90;;;;;;5055850;28;20651;-48
2023/09/21 09:27:41;;;;;;;2.28;1.30;;;16.60;99.90;;;;;;5055648;28;20175;-48
2023/09/21 09:30:08;;;;;;;2.08;1.25;;;16.60;99.90;;;;;;5055795;28;20187;-49
2023/09/21 09:32:41;;;;;;;1.70;1.17;;;16.60;99.90;;;;;;5055735;28;20205;-47
2023/09/21 09:35:13;;;;;;;1.80;1.08;;;16.50;99.90;;;;;;5055652;28;20175;-47
2023/09/21 09:37:48;;;;;;;1.42;0.90;;;16.40;99.90;;;;;;5055725;28;20201;-50
2023/09/21 09:40:24;;;;;;;1.50;1.00;;;16.40;99.90;;;;;;5055416;28;20616;-52
2023/09/21 09:42:53;;;;;;;2.20;1.10;;;16.50;99.90;;;;;;5055605;28;20179;-50
2023/09/21 09:45:25;;;;;;;2.00;1.35;;;16.50;99.90;;;;;;5055698;28;20233;-48
2023/09/21 09:48:03;;;;;;;2.95;1.40;;;16.50;99.90;;;;;;5055450;28;20232;-48
2023/09/21 09:50:33;;;;;;;2.25;1.10;;;16.50;99.90;;;;;;5055625;28;20175;-49
2023/09/21 09:53:06;;;;;;;2.53;1.08;;;16.30;99.90;;;;;;5055733;28;20175;-47
2023/09/21 09:55:36;;;;;;;1.25;1.10;;;16.10;99.90;;;;;;5055406;28;20513;-50
2023/09/21 09:58:03;;;;;;;1.70;1.08;;;16.10;99.90;;;;;;5055309;28;20254;-47
2023/09/21 10:00:30;;;;;;;2.92;1.17;;;16.10;99.90;;;;;;5055201;28;20172;-50
2023/09/21 10:02:57;;;;;;;1.80;1.20;;;16.10;99.90;;;;;;5055035;28;20528;-50
2023/09/21 10:05:27;;;;;;;1.30;1.20;;;16.10;99.90;;;;;;5055261;28;20183;-48
2023/09/21 10:07:55;;;;;;;2.20;1.13;;;16.00;99.90;;;;;;5055035;28;20180;-52
2023/09/21 10:10:22;;;;;;;2.78;1.30;;;15.80;99.90;;;;;;5055054;28;20181;-49
2023/09/21 10:12:51;;;;;;;2.42;1.27;;;15.70;99.90;;;;;;5054087;28;20176;-51
2023/09/21 10:15:18;;;;;;;2.10;1.15;;;15.50;99.90;;;;;;5054908;28;20175;-51
2023/09/21 10:17:43;;;;;;;2.33;1.30;;;15.60;99.90;;;;;;5054759;28;20172;-49
2023/09/21 10:20:16;;;;;;;1.50;1.40;;;15.30;99.90;;;;;;5054780;28;20226;-49
2023/09/21 10:22:46;;;;;;;3.03;1.60;;;15.20;99.90;;;;;;5054837;28;20179;-48
2023/09/21 10:25:13;;;;;;;2.47;1.55;;;15.10;99.90;;;;;;5054650;28;20621;-49
2023/09/21 10:27:39;;;;;;;3.03;1.80;;;15.10;99.90;;;;;;5054666;28;20175;-51
2023/09/21 10:30:15;;;;;;;2.28;1.70;;;15.00;99.90;;;;;;5054440;28;20215;-50
2023/09/21 10:32:48;;;;;;;1.73;1.40;;;15.00;99.90;;;;;;5054855;28;20175;-50
2023/09/21 10:35:42;;;;;;;2.53;1.60;;;14.90;99.90;;;;;;5054671;28;20179;-52
2023/09/21 10:38:11;;;;;;;2.75;1.60;;;14.90;99.90;;;;;;5054439;28;20320;-48
2023/09/21 10:40:37;;;;;;;2.17;1.65;;;15.00;99.90;;;;;;5054344;28;20535;-52
2023/09/21 10:43:38;;;;;;;2.70;1.50;;;15.10;99.90;;;;;;5054697;28;20183;-49
2023/09/21 10:46:17;;;;;;;2.05;1.77;;;15.10;99.90;;;;;;5054038;28;20179;-48
2023/09/21 10:48:49;;;;;;;2.63;1.80;;;15.30;99.90;;;;;;5054118;28;20234;-53
2023/09/21 10:51:15;;;;;;;2.22;1.88;;;15.40;99.90;;;;;;5054331;28;20175;-47
2023/09/21 10:53:42;;;;;;;3.05;1.85;;;15.40;99.90;;;;;;5054247;28;20182;-49
2023/09/21 10:56:07;;;;;;;2.20;1.90;;;15.40;99.90;;;;;;5054151;28;20183;-50
2023/09/21 10:58:33;;;;;;;2.20;2.00;;;15.60;99.90;;;;;;5054106;28;20201;-51
2023/09/21 11:01:02;;;;;;;2.88;1.73;;;15.80;99.90;;;;;;5054044;28;20182;-52
2023/09/21 11:03:29;;;;;;;4.32;2.10;;;15.80;99.90;;;;;;5053758;28;20217;-51
2023/09/21 11:05:55;;;;;;;2.17;1.90;;;15.90;99.90;;;;;;5054112;28;20182;-50
2023/09/21 11:08:24;;;;;;;1.73;1.58;;;15.90;99.90;;;;;;5053890;28;20211;-52
2023/09/21 11:10:50;;;;;;;2.63;1.65;;;16.00;99.90;;;;;;5053890;28;20187;-51
2023/09/21 11:13:19;;;;;;;3.85;1.80;;;15.90;99.90;;;;;;5053749;28;20256;-52
2023/09/21 11:15:46;;;;;;;3.75;1.80;;;16.00;99.90;;;;;;5053696;28;20180;-53
2023/09/21 11:18:12;;;;;;;3.53;2.72;;;16.10;99.90;;;;;;5052293;28;20236;-52
2023/09/21 11:20:40;;;;;;;3.08;1.95;;;16.20;99.90;;;;;;5053892;28;20226;-49
2023/09/21 11:23:07;;;;;;;2.22;1.45;;;16.10;99.90;;;;;;5053529;28;20179;-52
2023/09/21 11:25:33;;;;;;;3.85;2.45;;;16.20;99.90;;;;;;5053650;28;20179;-50
2023/09/21 11:27:59;;;;;;;4.30;2.40;;;16.10;99.90;;;;;;5053537;28;20178;-49
2023/09/21 11:30:25;;;;;;;2.20;1.63;;;16.20;99.90;;;;;;5053633;28;20206;-45
2023/09/21 11:32:54;;;;;;;3.25;1.65;;;16.30;99.90;;;;;;5053417;28;20176;-48
2023/09/21 11:35:21;;;;;;;1.65;1.02;;;16.20;99.90;;;;;;5053609;28;20202;-49
2023/09/21 11:37:49;;;;;;;2.13;1.65;;;16.20;99.90;;;;;;5053499;28;20582;-48
2023/09/21 11:40:21;;;;;;;4.55;1.60;;;16.20;99.90;;;;;;5053473;28;20167;-48
2023/09/21 11:42:48;;;;;;;2.33;1.20;;;16.30;99.90;;;;;;5053308;28;20188;-51
2023/09/21 11:45:24;;;;;;;3.53;1.73;;;16.40;99.90;;;;;;5053248;28;20171;-48
2023/09/21 11:47:54;;;;;;;1.98;1.50;;;16.50;99.90;;;;;;5053361;28;20171;-49
2023/09/21 11:50:25;;;;;;;4.20;1.50;;;16.70;99.90;;;;;;5053343;28;20657;-47
2023/09/21 11:52:54;;;;;;;5.72;1.98;;;16.80;99.90;;;;;;5053308;28;20628;-52
2023/09/21 11:55:21;;;;;;;2.63;1.10;;;16.90;99.90;;;;;;5053298;28;20711;-51
2023/09/21 11:57:47;;;;;;;2.15;1.20;;;17.00;99.90;;;;;;5053092;28;20263;-48
2023/09/21 12:00:26;;;;;;;2.28;1.25;;;17.00;99.90;;;;;;5053401;28;20171;-47
2023/09/21 12:02:56;;;;;;;3.53;1.50;;;17.10;99.90;;;;;;5053191;28;20262;-49
2023/09/21 12:05:22;;;;;;;2.20;1.35;;;17.00;99.90;;;;;;5053153;28;20575;-49
2023/09/21 12:07:48;;;;;;;1.40;1.30;;;16.80;99.90;;;;;;5052925;28;20540;-46
2023/09/21 12:10:15;;;;;;;1.83;1.40;;;16.80;99.90;;;;;;5052945;28;20172;-47
2023/09/21 12:12:42;;;;;;;3.15;1.52;;;16.90;99.90;;;;;;5052019;28;20258;-50
2023/09/21 12:15:12;;;;;;;2.22;1.58;;;16.90;99.90;;;;;;5053107;28;20183;-50
2023/09/21 12:17:38;;;;;;;2.25;1.90;;;16.90;99.90;;;;;;5053035;28;20175;-46
2023/09/21 12:20:16;;;;;;;3.67;1.67;;;16.90;99.90;;;;;;5052880;28;20688;-51
2023/09/21 12:22:42;;;;;;;4.03;1.55;;;16.90;99.90;;;;;;5052900;28;20183;-49
2023/09/21 12:25:08;;;;;;;3.05;1.63;;;16.90;99.90;;;;;;5053140;28;20590;-50
2023/09/21 12:27:35;;;;;;;3.58;2.00;;;17.00;99.90;;;;;;5053081;28;20175;-48
2023/09/21 12:30:01;;;;;;;1.92;1.83;;;17.00;99.90;;;;;;5052863;28;20275;-51
2023/09/21 12:32:28;;;;;;;3.05;2.10;;;16.90;99.90;;;;;;5052856;28;20649;-50
2023/09/21 12:34:54;;;;;;;2.10;1.88;;;17.00;99.90;;;;;;5052973;28;20198;-49
2023/09/21 12:37:21;;;;;;;2.80;1.95;;;17.00;99.90;;;;;;5056651;28;20171;-47
2023/09/21 12:39:47;;;;;;;2.90;1.65;;;17.10;99.90;;;;;;5056922;28;20175;-49
2023/09/21 12:42:14;;;;;;;2.00;1.65;;;17.10;99.90;;;;;;5056837;28;20233;-50
2023/09/21 12:44:40;;;;;;;3.15;1.70;;;17.00;99.90;;;;;;5056621;28;20187;-49
2023/09/21 12:47:09;;;;;;;1.88;1.77;;;17.00;99.90;;;;;;5056559;28;20514;-50
2023/09/21 12:49:35;;;;;;;1.65;1.33;;;16.80;99.90;;;;;;5056464;28;20191;-48
2023/09/21 12:52:02;;;;;;;2.85;1.88;;;16.90;99.90;;;;;;5056467;28;20180;-47